Time;durP1;ratioP1;P1;durP2;ratioP2;P2;SDS_P1;SDS_P2;PMS_P1;PMS_P2;Temp;Humidity;BMP_temperature;BMP_pressure;BME280_temperature;BME280_humidity;BME280_pressure;Samples;Min_cycle;Max_cycle;Signal;HPM_P1;HPM_P2
2023/12/06 00:02:11;;;;;;;0.63;0.63;;;;;;;3.80;100.00;97481.78;5054761;28;20231;-79
2023/12/06 00:04:38;;;;;;;0.70;0.60;;;;;;;3.78;100.00;97478.41;5055226;28;20209;-79
2023/12/06 00:07:06;;;;;;;0.90;0.60;;;;;;;3.80;100.00;97491.41;5056290;28;20216;-79
2023/12/06 00:09:32;;;;;;;0.53;0.53;;;;;;;3.84;100.00;97493.78;5056976;28;20216;-79
2023/12/06 00:11:58;;;;;;;0.70;0.70;;;;;;;3.77;100.00;97494.16;5057122;28;20224;-79
2023/12/06 00:14:25;;;;;;;0.90;0.77;;;;;;;3.82;100.00;97498.25;5056668;28;20232;-79
2023/12/06 00:16:51;;;;;;;0.60;0.60;;;;;;;3.82;100.00;97498.25;5057347;28;20224;-79
2023/12/06 00:19:18;;;;;;;1.07;0.70;;;;;;;3.79;100.00;97490.56;5056985;28;20292;-79
2023/12/06 00:21:44;;;;;;;1.70;0.67;;;;;;;3.82;100.00;97494.78;5056757;28;20233;-79
2023/12/06 00:24:12;;;;;;;0.60;0.60;;;;;;;3.82;100.00;97500.84;5056513;28;20214;-79
2023/12/06 00:26:40;;;;;;;1.03;0.70;;;;;;;3.87;100.00;97493.63;5056713;28;20212;-79
2023/12/06 00:29:06;;;;;;;0.67;0.67;;;;;;;3.82;100.00;97490.41;5059876;28;20208;-80
2023/12/06 00:31:33;;;;;;;0.80;0.60;;;;;;;3.86;100.00;97496.31;5059905;28;20233;-80
2023/12/06 00:33:59;;;;;;;0.83;0.57;;;;;;;3.88;100.00;97494.44;5059370;28;20231;-80
2023/12/06 00:36:25;;;;;;;2.00;1.33;;;;;;;3.85;100.00;97500.69;5060602;28;20214;-80
2023/12/06 00:38:52;;;;;;;0.60;0.60;;;;;;;3.83;100.00;97497.31;5060539;28;20220;-79
2023/12/06 00:41:20;;;;;;;0.50;0.50;;;;;;;3.82;100.00;97500.84;5060098;28;20274;-79
2023/12/06 00:43:47;;;;;;;0.77;0.73;;;;;;;3.84;100.00;97499.00;5060578;28;20209;-80
2023/12/06 00:46:13;;;;;;;0.50;0.50;;;;;;;3.81;100.00;97499.19;5059530;28;20217;-79
2023/12/06 00:48:40;;;;;;;0.93;0.70;;;;;;;3.86;100.00;97507.59;5059141;28;20563;-80
2023/12/06 00:51:06;;;;;;;0.60;0.60;;;;;;;3.84;100.00;97504.22;5060675;28;20225;-79
2023/12/06 00:53:33;;;;;;;0.43;0.43;;;;;;;3.83;100.00;97512.13;5060065;28;20243;-79
2023/12/06 00:56:00;;;;;;;0.47;0.47;;;;;;;3.81;100.00;97509.63;5060107;28;20280;-79
2023/12/06 00:58:28;;;;;;;1.30;0.77;;;;;;;3.81;100.00;97514.00;5059866;28;20215;-79
2023/12/06 01:00:54;;;;;;;0.60;0.60;;;;;;;3.80;100.00;97510.53;5060421;28;20222;-79
2023/12/06 01:03:21;;;;;;;0.40;0.40;;;;;;;3.84;100.00;97516.47;5059261;28;20295;-79
2023/12/06 01:05:47;;;;;;;0.70;0.50;;;;;;;3.83;100.00;97528.69;5057726;28;20217;-79
2023/12/06 01:08:14;;;;;;;0.47;0.47;;;;;;;3.82;100.00;97527.00;5060000;28;20692;-79
2023/12/06 01:10:43;;;;;;;0.50;0.50;;;;;;;3.81;100.00;97525.31;5060179;28;20671;-79
2023/12/06 01:13:10;;;;;;;0.53;0.50;;;;;;;3.82;100.00;97532.22;5058999;28;20225;-79
2023/12/06 01:15:38;;;;;;;0.47;0.47;;;;;;;3.79;100.00;97527.13;5057716;28;20216;-79
2023/12/06 01:18:05;;;;;;;0.50;0.50;;;;;;;3.77;100.00;97529.00;5058828;28;20403;-79
2023/12/06 01:20:31;;;;;;;0.47;0.47;;;;;;;3.80;100.00;97534.03;5059806;28;20213;-80
2023/12/06 01:22:58;;;;;;;0.63;0.60;;;;;;;3.84;100.00;97535.59;5059977;28;20244;-79
2023/12/06 01:25:24;;;;;;;0.73;0.60;;;;;;;3.83;100.00;97539.13;5060648;28;20204;-79
2023/12/06 01:27:51;;;;;;;0.57;0.53;;;;;;;3.82;100.00;97544.44;5060496;28;20216;-79
2023/12/06 01:30:17;;;;;;;0.57;0.57;;;;;;;3.80;100.00;97539.28;5061739;28;20209;-79
2023/12/06 01:32:45;;;;;;;0.63;0.60;;;;;;;3.78;100.00;97548.97;5060510;28;20243;-79
2023/12/06 01:35:12;;;;;;;0.50;0.50;;;;;;;3.76;100.00;97550.84;5059716;28;20319;-79
2023/12/06 01:37:38;;;;;;;0.50;0.50;;;;;;;3.82;100.00;97553.13;5059773;28;20216;-81
2023/12/06 01:40:06;;;;;;;0.47;0.47;;;;;;;3.78;100.00;97546.38;5059570;28;20226;-79
2023/12/06 01:42:32;;;;;;;0.50;0.50;;;;;;;3.75;100.00;97551.75;5060259;28;20229;-79
2023/12/06 01:44:59;;;;;;;1.47;0.60;;;;;;;3.76;100.00;97558.66;5059795;28;20202;-79
2023/12/06 01:47:28;;;;;;;0.60;0.60;;;;;;;3.78;100.00;97558.59;5060256;28;20208;-81
2023/12/06 01:49:58;;;;;;;0.60;0.60;;;;;;;3.78;100.00;97559.44;5062040;28;20212;-79
2023/12/06 01:52:25;;;;;;;0.60;0.60;;;;;;;3.83;100.00;97549.59;5062028;28;20232;-79
2023/12/06 01:54:52;;;;;;;0.90;0.70;;;;;;;3.80;100.00;97570.63;5060677;28;20232;-79
2023/12/06 01:57:18;;;;;;;0.50;0.50;;;;;;;3.77;100.00;97555.13;5060653;28;20201;-79
2023/12/06 01:59:45;;;;;;;0.80;0.60;;;;;;;3.75;100.00;97564.81;5058116;28;20222;-81
2023/12/06 02:02:13;;;;;;;1.00;0.60;;;;;;;3.73;100.00;97563.22;5058603;28;20607;-79
2023/12/06 02:04:40;;;;;;;1.03;0.60;;;;;;;3.74;100.00;97562.28;5058336;28;20214;-78
2023/12/06 02:07:08;;;;;;;0.40;0.40;;;;;;;3.73;100.00;97564.03;5059820;28;20243;-79
2023/12/06 02:09:34;;;;;;;0.50;0.50;;;;;;;3.73;100.00;97566.66;5060279;28;20208;-79
2023/12/06 02:12:01;;;;;;;0.53;0.50;;;;;;;3.70;100.00;97569.44;5059556;28;20240;-79
2023/12/06 02:14:33;;;;;;;0.60;0.60;;;;;;;3.70;100.00;97573.81;5058501;28;20234;-79
2023/12/06 02:17:00;;;;;;;0.43;0.40;;;;;;;3.74;100.00;97570.94;5059384;28;20212;-79
2023/12/06 02:19:29;;;;;;;0.50;0.50;;;;;;;3.68;100.00;97571.25;5059641;28;20512;-79
2023/12/06 02:21:56;;;;;;;0.43;0.43;;;;;;;3.66;100.00;97573.13;5059384;28;20738;-80
2023/12/06 02:24:26;;;;;;;0.40;0.40;;;;;;;3.65;100.00;97570.56;5059946;28;20206;-79
2023/12/06 02:26:54;;;;;;;0.70;0.50;;;;;;;3.69;100.00;97580.81;5060537;28;20222;-79
2023/12/06 02:29:21;;;;;;;0.90;0.60;;;;;;;3.71;100.00;97570.25;5060106;28;20250;-79
2023/12/06 02:31:47;;;;;;;0.40;0.40;;;;;;;3.69;100.00;97582.56;5060913;28;20577;-79
2023/12/06 02:34:18;;;;;;;0.43;0.40;;;;;;;3.66;100.00;97573.13;5059052;28;20232;-81
2023/12/06 02:36:49;;;;;;;0.40;0.40;;;;;;;3.65;100.00;97571.44;5060281;28;20216;-79
2023/12/06 02:39:17;;;;;;;0.50;0.50;;;;;;;3.66;100.00;97572.28;5060634;28;20681;-81
2023/12/06 02:41:43;;;;;;;0.53;0.53;;;;;;;3.68;100.00;97575.66;5059967;28;20235;-81
2023/12/06 02:44:11;;;;;;;0.70;0.60;;;;;;;3.69;100.00;97567.75;5059677;28;20205;-81
2023/12/06 02:46:38;;;;;;;0.40;0.40;;;;;;;3.67;100.00;97569.56;5060038;28;20227;-81
2023/12/06 02:49:05;;;;;;;0.50;0.50;;;;;;;3.66;100.00;97567.06;5060060;28;20212;-82
2023/12/06 02:51:31;;;;;;;0.60;0.60;;;;;;;3.66;100.00;97565.28;5060582;28;20239;-80
2023/12/06 02:53:58;;;;;;;0.37;0.33;;;;;;;3.66;100.00;97570.50;5059775;28;20238;-79
2023/12/06 02:56:24;;;;;;;0.40;0.40;;;;;;;3.64;100.00;97564.53;5060414;28;20528;-79
2023/12/06 02:58:51;;;;;;;0.40;0.40;;;;;;;3.66;100.00;97562.66;5060445;28;20209;-81
2023/12/06 03:01:18;;;;;;;0.37;0.37;;;;;;;3.69;100.00;97567.75;5059839;28;20259;-79
2023/12/06 03:03:45;;;;;;;0.40;0.40;;;;;;;3.64;100.00;97563.66;5060442;28;20212;-79
2023/12/06 03:06:11;;;;;;;0.40;0.40;;;;;;;3.63;100.00;97568.06;5060370;28;20634;-79
2023/12/06 03:08:38;;;;;;;0.77;0.70;;;;;;;3.65;100.00;97575.81;5060960;28;20218;-79
2023/12/06 03:11:04;;;;;;;0.40;0.40;;;;;;;3.67;100.00;97563.53;5060373;28;20242;-81
2023/12/06 03:13:31;;;;;;;0.40;0.40;;;;;;;3.70;100.00;97564.22;5059887;28;20211;-81
2023/12/06 03:15:57;;;;;;;1.00;0.90;;;;;;;3.67;100.00;97574.81;5059880;28;20208;-81
2023/12/06 03:18:26;;;;;;;0.40;0.40;;;;;;;3.69;100.00;97567.75;5060033;28;20209;-79
2023/12/06 03:20:52;;;;;;;0.47;0.47;;;;;;;3.68;100.00;97566.03;5060008;28;20232;-79
2023/12/06 03:23:19;;;;;;;0.43;0.40;;;;;;;3.69;100.00;97574.72;5060553;28;20578;-80
2023/12/06 03:25:45;;;;;;;0.50;0.50;;;;;;;3.67;100.00;97566.13;5059403;28;20222;-79
2023/12/06 03:28:12;;;;;;;0.50;0.50;;;;;;;3.68;100.00;97576.50;5059581;28;20272;-81
2023/12/06 03:30:38;;;;;;;0.47;0.47;;;;;;;3.66;100.00;97567.91;5059854;28;20235;-80
2023/12/06 03:33:05;;;;;;;0.37;0.37;;;;;;;3.66;100.00;97573.13;5059456;28;20222;-79
2023/12/06 03:35:33;;;;;;;0.60;0.60;;;;;;;3.65;100.00;97571.44;5058480;28;20239;-80
2023/12/06 03:37:59;;;;;;;0.40;0.40;;;;;;;3.64;100.00;97567.13;5058939;28;20683;-80
2023/12/06 03:40:26;;;;;;;0.50;0.50;;;;;;;3.68;100.00;97570.44;5059097;28;20212;-80
2023/12/06 03:42:51;;;;;;;0.50;0.50;;;;;;;3.71;100.00;97570.25;5058661;28;20233;-80
2023/12/06 03:45:18;;;;;;;0.40;0.40;;;;;;;3.72;100.00;97566.75;5058867;28;20211;-80
2023/12/06 03:47:45;;;;;;;0.33;0.33;;;;;;;3.69;100.00;97566.91;5059615;28;20248;-80
2023/12/06 03:50:11;;;;;;;0.30;0.30;;;;;;;3.67;100.00;97569.56;5059880;28;20208;-80
2023/12/06 03:52:39;;;;;;;0.70;0.43;;;;;;;3.69;100.00;97572.97;5060178;28;20229;-80
2023/12/06 03:55:06;;;;;;;0.40;0.40;;;;;;;3.65;100.00;97570.56;5059255;28;20236;-80
2023/12/06 03:57:32;;;;;;;0.40;0.40;;;;;;;3.69;100.00;97574.72;5060546;28;20521;-80
2023/12/06 03:59:59;;;;;;;0.30;0.30;;;;;;;3.65;100.00;97575.81;5060857;28;20209;-80
2023/12/06 04:02:25;;;;;;;0.33;0.33;;;;;;;3.65;100.00;97581.88;5061091;28;20245;-80
2023/12/06 04:04:52;;;;;;;0.40;0.40;;;;;;;3.70;100.00;97579.03;5064049;28;20208;-80
2023/12/06 04:07:18;;;;;;;0.33;0.33;;;;;;;3.71;100.00;97575.50;5064175;28;20231;-80
2023/12/06 04:09:46;;;;;;;0.47;0.47;;;;;;;3.67;100.00;97573.97;5063357;28;20209;-80
2023/12/06 04:12:14;;;;;;;0.40;0.40;;;;;;;3.67;100.00;97577.41;5063685;28;20235;-80
2023/12/06 04:14:41;;;;;;;0.70;0.40;;;;;;;3.70;100.00;97568.59;5063190;28;20229;-80
2023/12/06 04:17:07;;;;;;;0.40;0.40;;;;;;;3.66;100.00;97578.34;5064310;28;20212;-80
2023/12/06 04:19:34;;;;;;;0.50;0.30;;;;;;;3.69;100.00;97575.59;5064159;28;20213;-80
2023/12/06 04:22:00;;;;;;;0.40;0.40;;;;;;;3.65;100.00;97575.81;5063966;28;20235;-80
2023/12/06 04:24:27;;;;;;;0.70;0.40;;;;;;;3.64;100.00;97580.19;5063581;28;20210;-80
2023/12/06 04:26:54;;;;;;;0.40;0.40;;;;;;;3.65;100.00;97576.66;5064147;28;20209;-80
2023/12/06 04:29:21;;;;;;;0.53;0.40;;;;;;;3.65;100.00;97588.88;5064268;28;20212;-80
2023/12/06 04:31:47;;;;;;;0.37;0.30;;;;;;;3.61;100.00;97590.78;5064049;28;20239;-80
2023/12/06 04:34:14;;;;;;;0.40;0.40;;;;;;;3.64;100.00;97597.63;5063933;28;20228;-80
2023/12/06 04:36:41;;;;;;;0.40;0.40;;;;;;;3.65;100.00;97600.19;5064443;28;20205;-80
2023/12/06 04:39:07;;;;;;;0.40;0.40;;;;;;;3.64;100.00;97603.72;5064243;28;20209;-80
2023/12/06 04:41:34;;;;;;;0.37;0.37;;;;;;;3.64;100.00;97603.72;5063941;28;20228;-80
2023/12/06 04:44:02;;;;;;;0.80;0.40;;;;;;;3.66;100.00;97604.47;5063601;28;20209;-80
2023/12/06 04:46:28;;;;;;;0.40;0.40;;;;;;;3.66;100.00;97604.47;5064243;28;20218;-80
2023/12/06 04:48:55;;;;;;;0.40;0.40;;;;;;;3.68;100.00;97607.84;5064484;28;20209;-80
2023/12/06 04:51:21;;;;;;;0.40;0.40;;;;;;;3.66;100.00;97609.69;5064039;28;20232;-80
2023/12/06 04:53:48;;;;;;;0.50;0.50;;;;;;;3.68;100.00;97607.03;5063394;28;20217;-80
2023/12/06 04:56:14;;;;;;;0.30;0.30;;;;;;;3.66;100.00;97601.88;5063672;28;20212;-80
2023/12/06 04:58:41;;;;;;;0.40;0.40;;;;;;;3.67;100.00;97614.00;5063947;28;20205;-80
2023/12/06 05:01:09;;;;;;;0.50;0.50;;;;;;;3.68;100.00;97614.84;5063587;28;20239;-80
2023/12/06 05:03:35;;;;;;;0.30;0.30;;;;;;;3.69;100.00;97616.53;5063922;28;20774;-80
2023/12/06 05:06:02;;;;;;;0.30;0.30;;;;;;;3.65;100.00;97623.69;5062776;28;20206;-80
2023/12/06 05:08:28;;;;;;;0.30;0.30;;;;;;;3.65;100.00;97626.31;5063499;28;20204;-80
2023/12/06 05:10:55;;;;;;;0.40;0.40;;;;;;;3.64;100.00;97619.41;5062973;28;20208;-80
2023/12/06 05:13:21;;;;;;;0.40;0.40;;;;;;;3.68;100.00;97623.53;5062146;28;20216;-80
2023/12/06 05:15:48;;;;;;;0.60;0.50;;;;;;;3.72;100.00;97629.47;5062292;28;20232;-80
2023/12/06 05:18:16;;;;;;;0.40;0.40;;;;;;;3.71;100.00;97626.00;5063256;28;20218;-80
2023/12/06 05:20:42;;;;;;;0.40;0.40;;;;;;;3.71;100.00;97628.63;5062957;28;20244;-80
2023/12/06 05:23:09;;;;;;;0.30;0.30;;;;;;;3.74;100.00;97638.91;5062330;28;20670;-80
2023/12/06 05:25:35;;;;;;;0.53;0.47;;;;;;;3.72;100.00;97635.53;5063294;28;20224;-80
2023/12/06 05:28:01;;;;;;;0.40;0.40;;;;;;;3.75;100.00;97635.38;5062968;28;20232;-80
2023/12/06 05:30:28;;;;;;;0.20;0.20;;;;;;;3.79;100.00;97641.31;5063098;28;20214;-80
2023/12/06 05:32:55;;;;;;;0.43;0.43;;;;;;;3.80;100.00;97638.59;5063299;28;20224;-79
2023/12/06 05:35:23;;;;;;;0.40;0.40;;;;;;;3.86;100.00;97635.66;5062139;28;20326;-79
2023/12/06 05:37:49;;;;;;;0.50;0.50;;;;;;;3.82;100.00;97631.53;5072209;28;20220;-79
2023/12/06 05:40:16;;;;;;;0.60;0.60;;;;;;;3.83;100.00;97635.84;5073250;28;20235;-79
2023/12/06 05:42:43;;;;;;;0.43;0.43;;;;;;;3.84;100.00;97637.53;5070416;28;20232;-81
2023/12/06 05:45:10;;;;;;;0.47;0.47;;;;;;;3.87;100.00;97639.13;5066783;28;20209;-79
2023/12/06 05:47:37;;;;;;;0.40;0.40;;;;;;;3.86;100.00;97638.28;5059206;28;20312;-79
2023/12/06 05:50:04;;;;;;;0.40;0.40;;;;;;;3.91;100.00;97630.22;5058825;28;20213;-81
2023/12/06 05:52:33;;;;;;;0.43;0.43;;;;;;;3.90;100.00;97629.38;5059068;28;20286;-79
2023/12/06 05:55:00;;;;;;;0.40;0.40;;;;;;;3.88;100.00;97630.38;5058877;28;20228;-79
2023/12/06 05:57:28;;;;;;;0.67;0.43;;;;;;;3.90;100.00;97625.91;5058828;28;20217;-79
2023/12/06 05:59:55;;;;;;;0.33;0.33;;;;;;;3.89;100.00;97632.06;5059174;28;20209;-79
2023/12/06 06:02:21;;;;;;;0.30;0.30;;;;;;;3.92;100.00;97637.16;5058922;28;20317;-79
2023/12/06 06:04:49;;;;;;;0.93;0.33;;;;;;;3.91;100.00;97636.28;5059061;28;20204;-79
2023/12/06 06:07:16;;;;;;;0.40;0.40;;;;;;;3.91;100.00;97640.69;5058798;28;20685;-79
2023/12/06 06:09:44;;;;;;;0.40;0.40;;;;;;;3.93;100.00;97638.84;5058751;28;20219;-79
2023/12/06 06:12:10;;;;;;;0.50;0.50;;;;;;;3.95;100.00;97640.44;5058676;28;20229;-79
2023/12/06 06:14:37;;;;;;;0.40;0.40;;;;;;;4.03;100.00;97646.13;5058073;28;20233;-79
2023/12/06 06:17:04;;;;;;;0.60;0.50;;;;;;;4.03;100.00;97640.06;5058102;28;20221;-79
2023/12/06 06:19:30;;;;;;;0.30;0.30;;;;;;;3.99;100.00;97639.38;5058614;28;20208;-79
2023/12/06 06:21:57;;;;;;;0.30;0.30;;;;;;;3.99;100.00;97644.59;5058264;28;20234;-79
2023/12/06 06:24:23;;;;;;;0.40;0.40;;;;;;;4.03;100.00;97650.53;5057705;28;20205;-80
2023/12/06 06:26:51;;;;;;;0.50;0.50;;;;;;;4.04;100.00;97653.03;5057673;28;20216;-80
2023/12/06 06:29:17;;;;;;;0.40;0.40;;;;;;;4.08;100.00;97649.34;5058096;28;20633;-80
2023/12/06 06:31:44;;;;;;;0.43;0.43;;;;;;;4.11;100.00;97638.75;5057928;28;20232;-79
2023/12/06 06:34:10;;;;;;;0.57;0.57;;;;;;;4.10;100.00;97657.13;5058285;28;20205;-79
2023/12/06 06:36:37;;;;;;;0.60;0.50;;;;;;;4.11;100.00;97656.19;5059032;28;20233;-80
2023/12/06 06:39:03;;;;;;;0.40;0.40;;;;;;;4.14;100.00;97656.88;5058720;28;20207;-79
2023/12/06 06:41:30;;;;;;;0.40;0.40;;;;;;;4.17;100.00;97661.94;5058846;28;20228;-79
2023/12/06 06:43:58;;;;;;;0.50;0.50;;;;;;;4.16;100.00;97662.88;5058290;28;20213;-79
2023/12/06 06:46:24;;;;;;;0.60;0.60;;;;;;;4.20;100.00;97663.56;5058124;28;20344;-79
2023/12/06 06:48:51;;;;;;;0.60;0.60;;;;;;;4.21;100.00;97671.34;5058904;28;20209;-79
2023/12/06 06:51:17;;;;;;;1.20;0.50;;;;;;;4.22;100.00;97670.41;5058324;28;20232;-79
2023/12/06 06:53:44;;;;;;;0.60;0.60;;;;;;;4.20;100.00;97669.66;5058601;28;20213;-80
2023/12/06 06:56:11;;;;;;;0.50;0.50;;;;;;;4.25;100.00;97678.09;5058780;28;20603;-79
2023/12/06 06:58:37;;;;;;;1.97;0.40;;;;;;;4.25;100.00;97678.09;5058886;28;20209;-80
2023/12/06 07:01:06;;;;;;;0.60;0.60;;;;;;;4.25;100.00;97688.56;5059218;28;20228;-80
2023/12/06 07:03:32;;;;;;;0.53;0.50;;;;;;;4.21;100.00;97681.78;5059988;28;20218;-80
2023/12/06 07:06:01;;;;;;;0.67;0.67;;;;;;;4.22;100.00;97680.03;5058503;28;20206;-80
2023/12/06 07:08:29;;;;;;;0.73;0.60;;;;;;;4.22;100.00;97691.31;5059065;28;20788;-80
2023/12/06 07:10:57;;;;;;;1.10;0.80;;;;;;;4.22;100.00;97683.47;5058788;28;20255;-80
2023/12/06 07:13:23;;;;;;;0.80;0.80;;;;;;;4.20;100.00;97695.81;5058535;28;20668;-82
2023/12/06 07:15:49;;;;;;;2.00;1.20;;;;;;;4.20;100.00;97693.19;5058072;28;20327;-80
2023/12/06 07:18:18;;;;;;;1.67;0.90;;;;;;;4.22;100.00;97701.78;5058248;28;20739;-80
2023/12/06 07:20:48;;;;;;;0.90;0.70;;;;;;;4.26;100.00;97699.84;5057091;28;20234;-80
2023/12/06 07:23:15;;;;;;;0.70;0.70;;;;;;;4.28;100.00;97704.09;5057314;28;20329;-80
2023/12/06 07:25:41;;;;;;;0.90;0.63;;;;;;;4.27;100.00;97707.63;5056900;28;20285;-81
2023/12/06 07:28:08;;;;;;;1.67;0.97;;;;;;;4.26;100.00;97710.31;5057134;28;20295;-80
2023/12/06 07:30:34;;;;;;;1.50;1.00;;;;;;;4.26;100.00;97715.56;5057131;28;20228;-80
2023/12/06 07:33:01;;;;;;;1.30;1.20;;;;;;;4.27;100.00;97720.72;5054663;28;20225;-80
2023/12/06 07:35:28;;;;;;;1.70;1.00;;;;;;;4.30;100.00;97727.56;5055729;28;20754;-80
2023/12/06 07:37:55;;;;;;;1.00;0.77;;;;;;;4.32;100.00;97723.94;5056770;28;20214;-80
2023/12/06 07:40:21;;;;;;;1.73;1.00;;;;;;;4.31;100.00;97734.47;5059370;28;20666;-79
2023/12/06 07:42:49;;;;;;;1.43;0.90;;;;;;;4.28;100.00;97732.03;5058198;28;20284;-78
2023/12/06 07:45:15;;;;;;;2.47;1.10;;;;;;;4.24;100.00;97749.66;5060562;28;20219;-80
2023/12/06 07:47:42;;;;;;;0.70;0.70;;;;;;;4.30;100.00;97746.72;5060051;28;20214;-78
2023/12/06 07:50:09;;;;;;;0.90;0.70;;;;;;;4.35;100.00;97747.31;5062437;28;20213;-78
2023/12/06 07:52:39;;;;;;;1.23;0.80;;;;;;;4.32;100.00;97752.72;5063132;28;20229;-80
2023/12/06 07:55:06;;;;;;;1.43;0.90;;;;;;;4.33;100.00;97764.88;5062247;28;20692;-79
2023/12/06 07:57:33;;;;;;;1.07;0.83;;;;;;;4.37;100.00;97769.03;5061625;28;20221;-79
2023/12/06 08:00:00;;;;;;;0.70;0.70;;;;;;;4.36;100.00;97769.97;5060796;28;20204;-79
2023/12/06 08:02:26;;;;;;;2.73;1.57;;;;;;;4.39;100.00;97764.56;5060296;28;20245;-81
2023/12/06 08:04:53;;;;;;;2.70;2.40;;;;;;;4.42;100.00;97771.41;5060925;28;20216;-78
2023/12/06 08:07:19;;;;;;;2.27;2.00;;;;;;;4.41;100.00;97778.41;5060800;28;20211;-77
2023/12/06 08:09:49;;;;;;;2.73;2.13;;;;;;;4.45;100.00;97773.91;5062209;28;20305;-78
2023/12/06 08:12:16;;;;;;;3.40;2.50;;;;;;;4.43;100.00;97780.94;5062364;28;20237;-78
2023/12/06 08:14:43;;;;;;;4.57;2.87;;;;;;;4.38;100.00;97783.81;5062364;28;20532;-78
2023/12/06 08:17:10;;;;;;;2.73;2.40;;;;;;;4.44;100.00;97785.25;5062582;28;20275;-78
2023/12/06 08:19:36;;;;;;;5.43;4.37;;;;;;;4.43;100.00;97786.19;5062993;28;20702;-78
2023/12/06 08:22:03;;;;;;;6.47;4.23;;;;;;;4.42;100.00;97780.13;5061559;28;20601;-78
2023/12/06 08:24:30;;;;;;;5.37;4.40;;;;;;;4.49;100.00;97783.25;5061806;28;20222;-80
2023/12/06 08:26:58;;;;;;;6.87;4.77;;;;;;;4.51;100.00;97795.34;5055456;28;20211;-80
2023/12/06 08:29:25;;;;;;;6.50;4.77;;;;;;;4.49;100.00;97797.19;5055339;28;20205;-80
2023/12/06 08:31:51;;;;;;;6.93;4.90;;;;;;;4.46;100.00;97802.56;5056340;28;20295;-80
2023/12/06 08:34:18;;;;;;;7.97;5.43;;;;;;;4.44;100.00;97804.44;5056170;28;20387;-78
2023/12/06 08:36:44;;;;;;;6.83;4.87;;;;;;;4.41;100.00;97815.03;5060169;28;20585;-78
2023/12/06 08:39:12;;;;;;;7.77;5.60;;;;;;;4.43;100.00;97800.13;5060413;28;20208;-78
2023/12/06 08:41:38;;;;;;;7.80;5.97;;;;;;;4.37;100.00;97805.66;5060614;28;20237;-79
2023/12/06 08:44:07;;;;;;;9.40;5.83;;;;;;;4.38;100.00;97807.34;5057801;28;20218;-78
2023/12/06 08:46:33;;;;;;;11.13;6.30;;;;;;;4.33;100.00;97822.41;5058818;28;20201;-79
2023/12/06 08:49:00;;;;;;;11.60;7.57;;;;;;;4.30;100.00;97824.34;5058746;28;20209;-78
2023/12/06 08:51:27;;;;;;;7.67;5.83;;;;;;;4.31;100.00;97824.28;5058726;28;20233;-78
2023/12/06 08:53:54;;;;;;;8.57;6.50;;;;;;;4.23;100.00;97831.63;5059026;28;20212;-78
2023/12/06 08:56:20;;;;;;;9.37;6.60;;;;;;;4.22;100.00;97824.72;5060509;28;20232;-78
2023/12/06 08:58:47;;;;;;;9.90;6.70;;;;;;;4.20;100.00;97837.03;5060768;28;20300;-78
2023/12/06 09:01:15;;;;;;;8.50;6.10;;;;;;;4.22;100.00;97834.34;5059560;28;20228;-79
2023/12/06 09:03:41;;;;;;;10.80;6.77;;;;;;;4.20;100.00;97842.25;5059670;28;20216;-80
2023/12/06 09:06:08;;;;;;;9.53;6.93;;;;;;;4.17;100.00;97847.63;5058681;28;20208;-78
2023/12/06 09:08:35;;;;;;;9.07;6.33;;;;;;;4.19;100.00;97835.34;5058931;28;20212;-79
2023/12/06 09:11:03;;;;;;;8.77;6.90;;;;;;;4.17;100.00;97847.63;5059634;28;20221;-78
2023/12/06 09:13:30;;;;;;;9.73;6.07;;;;;;;4.19;100.00;97844.94;5059931;28;20207;-79
2023/12/06 09:15:56;;;;;;;8.57;5.97;;;;;;;4.17;100.00;97858.09;5058961;28;20490;-79
2023/12/06 09:18:24;;;;;;;9.40;6.17;;;;;;;4.19;100.00;97855.41;5059311;28;20214;-79
2023/12/06 09:20:52;;;;;;;10.10;6.63;;;;;;;4.16;100.00;97856.41;5059451;28;20220;-78
2023/12/06 09:23:18;;;;;;;8.67;6.30;;;;;;;4.09;100.00;97859.41;5058037;28;20248;-78
2023/12/06 09:25:45;;;;;;;10.90;7.00;;;;;;;4.06;100.00;97873.47;5059590;28;20232;-78
2023/12/06 09:28:11;;;;;;;10.00;6.83;;;;;;;4.04;100.00;97862.22;5061691;28;20243;-78
2023/12/06 09:30:39;;;;;;;14.00;9.65;;;;;;;4.03;100.00;97870.97;5060551;28;20448;-79
2023/12/06 09:33:06;;;;;;;9.63;7.20;;;;;;;4.02;100.00;97874.53;5059529;28;20227;-79
2023/12/06 09:35:33;;;;;;;12.57;8.70;;;;;;;4.03;100.00;97881.44;5059271;28;20826;-79
2023/12/06 09:38:00;;;;;;;9.50;6.80;;;;;;;4.01;100.00;97875.44;5063649;28;20240;-78
2023/12/06 09:40:28;;;;;;;9.83;7.27;;;;;;;3.99;100.00;97886.91;5079678;28;20216;-78
2023/12/06 09:43:01;;;;;;;9.93;6.80;;;;;;;4.03;100.00;97886.66;5078930;28;20294;-78
2023/12/06 09:45:29;;;;;;;9.93;7.00;;;;;;;4.04;100.00;97885.75;5072591;28;20219;-78
2023/12/06 09:47:56;;;;;;;12.60;7.70;;;;;;;4.08;100.00;97884.69;5055976;28;20261;-78
2023/12/06 09:50:23;;;;;;;9.30;6.77;;;;;;;4.09;100.00;97886.38;5057086;28;20580;-79
2023/12/06 09:52:52;;;;;;;8.70;7.00;;;;;;;4.11;100.00;97892.41;5057464;28;20230;-78
2023/12/06 09:55:21;;;;;;;9.17;6.67;;;;;;;4.12;100.00;97891.47;5056889;28;20216;-78
2023/12/06 09:57:48;;;;;;;10.17;7.03;;;;;;;4.17;100.00;97889.47;5058340;28;20233;-79
2023/12/06 10:00:15;;;;;;;11.23;7.40;;;;;;;4.12;100.00;97883.63;5057760;28;20235;-78
2023/12/06 10:02:50;;;;;;;10.47;6.93;;;;;;;4.18;100.00;97895.56;5058156;28;20237;-78
2023/12/06 10:05:16;;;;;;;9.93;7.60;;;;;;;4.14;100.00;97894.88;5057872;28;20208;-80
2023/12/06 10:07:43;;;;;;;12.50;7.83;;;;;;;4.16;100.00;97893.00;5057450;28;20205;-79
2023/12/06 10:10:15;;;;;;;12.30;8.40;;;;;;;4.22;100.00;97897.94;5053992;28;20212;-77
2023/12/06 10:12:48;;;;;;;14.00;8.37;;;;;;;4.20;100.00;97902.41;5052598;28;20233;-77
2023/12/06 10:15:16;;;;;;;12.10;8.23;;;;;;;4.20;100.00;97899.81;5052699;28;20206;-79
2023/12/06 10:17:42;;;;;;;10.33;7.33;;;;;;;4.21;100.00;97895.44;5054021;28;20643;-78
2023/12/06 10:20:09;;;;;;;12.97;7.70;;;;;;;4.27;100.00;97900.38;5051754;28;20270;-77
2023/12/06 10:22:36;;;;;;;9.93;7.30;;;;;;;4.27;100.00;97901.19;5051355;28;20568;-77
2023/12/06 10:25:05;;;;;;;11.70;8.05;;;;;;;4.23;100.00;97899.63;5044993;28;21015;-76
2023/12/06 10:27:34;;;;;;;10.73;7.73;;;;;;;4.21;100.00;97906.72;5059768;28;20204;-77
2023/12/06 10:30:01;;;;;;;9.20;6.67;;;;;;;4.27;100.00;97908.22;5070295;28;20215;-77
2023/12/06 10:32:29;;;;;;;10.50;6.63;;;;;;;4.30;100.00;97906.31;5068684;28;20234;-77
2023/12/06 10:34:59;;;;;;;9.40;6.73;;;;;;;4.28;100.00;97907.28;5070519;28;20205;-77
2023/12/06 10:37:27;;;;;;;11.57;7.10;;;;;;;4.21;100.00;97911.94;5070637;28;20224;-77
2023/12/06 10:39:59;;;;;;;8.87;6.57;;;;;;;4.24;100.00;97911.81;5053562;28;20213;-77
2023/12/06 10:42:29;;;;;;;11.97;6.73;;;;;;;4.27;100.00;97914.28;5049571;28;20229;-77
2023/12/06 10:45:00;;;;;;;8.77;5.97;;;;;;;4.22;100.00;97913.63;5066406;28;20410;-77
2023/12/06 10:47:27;;;;;;;10.00;6.83;;;;;;;4.20;100.00;97906.78;5049476;28;20242;-77
2023/12/06 10:49:55;;;;;;;11.03;6.70;;;;;;;4.22;100.00;97913.63;5049941;28;20209;-77
2023/12/06 10:52:21;;;;;;;8.43;5.90;;;;;;;4.24;100.00;97911.81;5050468;28;20228;-77
2023/12/06 10:54:48;;;;;;;9.27;6.57;;;;;;;4.22;100.00;97912.81;5048687;28;20220;-77
2023/12/06 10:57:15;;;;;;;8.57;5.80;;;;;;;4.22;100.00;97905.78;5050441;28;20260;-76
2023/12/06 10:59:43;;;;;;;8.70;6.30;;;;;;;4.22;100.00;97907.59;5050357;28;20663;-77
2023/12/06 11:02:11;;;;;;;8.33;5.97;;;;;;;4.23;100.00;97907.47;5049915;28;20228;-77
2023/12/06 11:04:43;;;;;;;9.77;6.30;;;;;;;4.22;100.00;97916.25;5050098;28;20208;-77
2023/12/06 11:07:25;;;;;;;9.57;6.43;;;;;;;4.23;100.00;97915.34;5050993;28;20213;-77
2023/12/06 11:10:09;;;;;;;10.27;6.57;;;;;;;4.24;100.00;97917.06;5050079;28;20254;-77
2023/12/06 11:12:50;;;;;;;9.90;6.63;;;;;;;4.31;100.00;97918.44;5049943;28;20264;-77
2023/12/06 11:15:32;;;;;;;8.23;6.07;;;;;;;4.32;100.00;97917.53;5049546;28;20228;-77
2023/12/06 11:18:09;;;;;;;8.20;6.13;;;;;;;4.30;100.00;97916.75;5049112;28;20258;-77
2023/12/06 11:20:38;;;;;;;8.40;5.70;;;;;;;4.33;100.00;97916.59;5050269;28;20703;-77
2023/12/06 11:23:05;;;;;;;7.77;5.70;;;;;;;4.39;100.00;97918.91;5049568;28;20232;-77
2023/12/06 11:25:31;;;;;;;11.60;6.80;;;;;;;4.37;100.00;97918.16;5048975;28;20591;-77
2023/12/06 11:27:58;;;;;;;8.03;5.73;;;;;;;4.39;100.00;97915.47;5050796;28;20209;-77
2023/12/06 11:30:25;;;;;;;9.30;6.37;;;;;;;4.39;100.00;97921.53;5051461;28;20640;-78
2023/12/06 11:32:57;;;;;;;7.77;5.73;;;;;;;4.37;100.00;97912.94;5054092;28;20230;-78